sensor_id;sensor_type;location;lat;lon;timestamp;P1;durP1;ratioP1;P2;durP2;ratioP2
15228;SDS011;7717;47.792;12.076;2022-07-01T00:00:45;5.33;;;2.47;;
15228;SDS011;7717;47.792;12.076;2022-07-01T00:03:10;4.33;;;2.17;;
15228;SDS011;7717;47.792;12.076;2022-07-01T00:05:35;2.60;;;2.40;;
15228;SDS011;7717;47.792;12.076;2022-07-01T00:08:01;2.93;;;2.23;;
15228;SDS011;7717;47.792;12.076;2022-07-01T00:10:26;5.47;;;2.47;;
15228;SDS011;7717;47.792;12.076;2022-07-01T00:12:51;4.17;;;2.60;;
15228;SDS011;7717;47.792;12.076;2022-07-01T00:15:16;2.80;;;2.43;;
15228;SDS011;7717;47.792;12.076;2022-07-01T00:17:41;3.90;;;2.70;;
15228;SDS011;7717;47.792;12.076;2022-07-01T00:20:08;4.10;;;2.70;;
15228;SDS011;7717;47.792;12.076;2022-07-01T00:22:34;1.87;;;1.70;;
15228;SDS011;7717;47.792;12.076;2022-07-01T00:24:59;3.37;;;2.97;;
15228;SDS011;7717;47.792;12.076;2022-07-01T00:27:24;2.73;;;2.50;;
15228;SDS011;7717;47.792;12.076;2022-07-01T00:29:49;2.00;;;1.80;;
15228;SDS011;7717;47.792;12.076;2022-07-01T00:32:15;3.30;;;2.50;;
15228;SDS011;7717;47.792;12.076;2022-07-01T00:34:40;2.77;;;2.57;;
15228;SDS011;7717;47.792;12.076;2022-07-01T00:37:05;2.40;;;2.30;;
15228;SDS011;7717;47.792;12.076;2022-07-01T00:39:30;3.03;;;2.80;;
15228;SDS011;7717;47.792;12.076;2022-07-01T00:42:00;4.27;;;2.57;;
15228;SDS011;7717;47.792;12.076;2022-07-01T00:44:26;3.67;;;2.33;;
15228;SDS011;7717;47.792;12.076;2022-07-01T00:46:51;3.27;;;2.37;;
15228;SDS011;7717;47.792;12.076;2022-07-01T00:49:18;2.53;;;2.33;;
15228;SDS011;7717;47.792;12.076;2022-07-01T00:51:43;3.07;;;2.30;;
15228;SDS011;7717;47.792;12.076;2022-07-01T00:54:09;2.40;;;2.20;;
15228;SDS011;7717;47.792;12.076;2022-07-01T00:56:34;2.53;;;2.20;;
15228;SDS011;7717;47.792;12.076;2022-07-01T00:59:00;4.07;;;2.30;;
15228;SDS011;7717;47.792;12.076;2022-07-01T01:01:25;2.40;;;2.20;;
15228;SDS011;7717;47.792;12.076;2022-07-01T01:03:50;2.10;;;1.93;;
15228;SDS011;7717;47.792;12.076;2022-07-01T01:06:16;1.93;;;1.83;;
15228;SDS011;7717;47.792;12.076;2022-07-01T01:08:41;2.43;;;1.80;;
15228;SDS011;7717;47.792;12.076;2022-07-01T01:11:06;3.87;;;1.60;;
15228;SDS011;7717;47.792;12.076;2022-07-01T01:13:32;1.60;;;1.50;;
15228;SDS011;7717;47.792;12.076;2022-07-01T01:15:57;1.90;;;1.37;;
15228;SDS011;7717;47.792;12.076;2022-07-01T01:18:22;1.30;;;1.30;;
15228;SDS011;7717;47.792;12.076;2022-07-01T01:20:48;1.67;;;1.30;;
15228;SDS011;7717;47.792;12.076;2022-07-01T01:23:13;1.63;;;1.53;;
15228;SDS011;7717;47.792;12.076;2022-07-01T01:25:38;0.93;;;0.90;;
15228;SDS011;7717;47.792;12.076;2022-07-01T01:28:03;1.40;;;1.20;;
15228;SDS011;7717;47.792;12.076;2022-07-01T01:30:29;1.67;;;0.90;;
15228;SDS011;7717;47.792;12.076;2022-07-01T01:32:54;1.00;;;1.00;;
15228;SDS011;7717;47.792;12.076;2022-07-01T01:35:20;2.13;;;0.63;;
15228;SDS011;7717;47.792;12.076;2022-07-01T01:37:45;0.60;;;0.60;;
15228;SDS011;7717;47.792;12.076;2022-07-01T01:40:11;0.87;;;0.87;;
15228;SDS011;7717;47.792;12.076;2022-07-01T01:42:39;0.70;;;0.70;;
15228;SDS011;7717;47.792;12.076;2022-07-01T01:45:04;0.80;;;0.80;;
15228;SDS011;7717;47.792;12.076;2022-07-01T01:47:29;0.97;;;0.87;;
15228;SDS011;7717;47.792;12.076;2022-07-01T01:49:55;0.57;;;0.53;;
15228;SDS011;7717;47.792;12.076;2022-07-01T01:52:20;1.23;;;0.67;;
15228;SDS011;7717;47.792;12.076;2022-07-01T01:54:45;0.70;;;0.70;;
15228;SDS011;7717;47.792;12.076;2022-07-01T01:57:12;0.60;;;0.60;;
15228;SDS011;7717;47.792;12.076;2022-07-01T01:59:37;1.47;;;0.70;;
15228;SDS011;7717;47.792;12.076;2022-07-01T02:02:03;0.70;;;0.70;;
15228;SDS011;7717;47.792;12.076;2022-07-01T02:04:28;0.80;;;0.70;;
15228;SDS011;7717;47.792;12.076;2022-07-01T02:06:53;0.60;;;0.60;;
15228;SDS011;7717;47.792;12.076;2022-07-01T02:09:19;0.83;;;0.83;;
15228;SDS011;7717;47.792;12.076;2022-07-01T02:11:44;0.77;;;0.70;;
15228;SDS011;7717;47.792;12.076;2022-07-01T02:14:09;0.70;;;0.63;;
15228;SDS011;7717;47.792;12.076;2022-07-01T02:16:35;2.60;;;0.70;;
15228;SDS011;7717;47.792;12.076;2022-07-01T02:19:00;1.80;;;0.70;;
15228;SDS011;7717;47.792;12.076;2022-07-01T02:21:25;1.33;;;0.80;;
15228;SDS011;7717;47.792;12.076;2022-07-01T02:23:50;2.97;;;0.77;;
15228;SDS011;7717;47.792;12.076;2022-07-01T02:26:17;0.60;;;0.60;;
15228;SDS011;7717;47.792;12.076;2022-07-01T02:28:42;1.73;;;0.80;;
15228;SDS011;7717;47.792;12.076;2022-07-01T02:31:07;1.70;;;0.80;;
15228;SDS011;7717;47.792;12.076;2022-07-01T02:33:33;0.73;;;0.73;;
15228;SDS011;7717;47.792;12.076;2022-07-01T02:35:58;2.00;;;0.87;;
15228;SDS011;7717;47.792;12.076;2022-07-01T02:38:23;0.50;;;0.50;;
15228;SDS011;7717;47.792;12.076;2022-07-01T02:40:49;0.80;;;0.80;;
15228;SDS011;7717;47.792;12.076;2022-07-01T02:43:14;1.23;;;0.70;;
15228;SDS011;7717;47.792;12.076;2022-07-01T02:45:41;0.50;;;0.50;;
15228;SDS011;7717;47.792;12.076;2022-07-01T02:48:06;0.70;;;0.70;;
15228;SDS011;7717;47.792;12.076;2022-07-01T02:50:31;0.70;;;0.70;;
15228;SDS011;7717;47.792;12.076;2022-07-01T02:52:57;0.80;;;0.80;;
15228;SDS011;7717;47.792;12.076;2022-07-01T02:55:22;0.63;;;0.50;;
15228;SDS011;7717;47.792;12.076;2022-07-01T02:57:47;0.70;;;0.70;;
15228;SDS011;7717;47.792;12.076;2022-07-01T03:00:16;1.23;;;0.60;;
15228;SDS011;7717;47.792;12.076;2022-07-01T03:02:42;1.53;;;0.80;;
15228;SDS011;7717;47.792;12.076;2022-07-01T03:05:07;1.07;;;0.60;;
15228;SDS011;7717;47.792;12.076;2022-07-01T03:07:33;0.67;;;0.50;;
15228;SDS011;7717;47.792;12.076;2022-07-01T03:10:00;1.33;;;0.73;;
15228;SDS011;7717;47.792;12.076;2022-07-01T03:12:25;1.30;;;0.70;;
15228;SDS011;7717;47.792;12.076;2022-07-01T03:14:54;2.60;;;0.70;;
15228;SDS011;7717;47.792;12.076;2022-07-01T03:17:20;0.70;;;0.70;;
15228;SDS011;7717;47.792;12.076;2022-07-01T03:19:45;0.83;;;0.83;;
15228;SDS011;7717;47.792;12.076;2022-07-01T03:22:10;0.53;;;0.53;;
15228;SDS011;7717;47.792;12.076;2022-07-01T03:24:36;0.80;;;0.80;;
15228;SDS011;7717;47.792;12.076;2022-07-01T03:27:01;0.67;;;0.63;;
15228;SDS011;7717;47.792;12.076;2022-07-01T03:29:26;0.60;;;0.60;;
15228;SDS011;7717;47.792;12.076;2022-07-01T03:31:52;1.33;;;0.60;;
15228;SDS011;7717;47.792;12.076;2022-07-01T03:34:17;1.10;;;0.73;;
15228;SDS011;7717;47.792;12.076;2022-07-01T03:36:42;0.50;;;0.50;;
15228;SDS011;7717;47.792;12.076;2022-07-01T03:39:08;1.60;;;0.60;;
15228;SDS011;7717;47.792;12.076;2022-07-01T03:41:33;1.90;;;0.70;;
15228;SDS011;7717;47.792;12.076;2022-07-01T03:43:58;0.80;;;0.70;;
15228;SDS011;7717;47.792;12.076;2022-07-01T03:46:23;1.90;;;0.70;;
15228;SDS011;7717;47.792;12.076;2022-07-01T03:48:48;4.93;;;1.20;;
15228;SDS011;7717;47.792;12.076;2022-07-01T03:51:14;1.57;;;0.50;;
15228;SDS011;7717;47.792;12.076;2022-07-01T03:53:39;1.50;;;0.73;;
15228;SDS011;7717;47.792;12.076;2022-07-01T03:56:23;0.60;;;0.57;;
15228;SDS011;7717;47.792;12.076;2022-07-01T03:58:48;0.80;;;0.80;;
15228;SDS011;7717;47.792;12.076;2022-07-01T04:01:13;2.00;;;1.00;;
15228;SDS011;7717;47.792;12.076;2022-07-01T04:03:38;2.87;;;0.80;;
15228;SDS011;7717;47.792;12.076;2022-07-01T04:06:04;1.10;;;1.00;;
15228;SDS011;7717;47.792;12.076;2022-07-01T04:08:29;0.93;;;0.80;;
15228;SDS011;7717;47.792;12.076;2022-07-01T04:10:55;4.00;;;1.40;;
15228;SDS011;7717;47.792;12.076;2022-07-01T04:13:21;1.37;;;0.80;;
15228;SDS011;7717;47.792;12.076;2022-07-01T04:15:47;2.20;;;0.70;;
15228;SDS011;7717;47.792;12.076;2022-07-01T04:18:12;3.00;;;0.70;;
15228;SDS011;7717;47.792;12.076;2022-07-01T04:20:37;1.23;;;0.70;;
15228;SDS011;7717;47.792;12.076;2022-07-01T04:23:02;2.10;;;0.73;;
15228;SDS011;7717;47.792;12.076;2022-07-01T04:25:28;1.67;;;0.80;;
15228;SDS011;7717;47.792;12.076;2022-07-01T04:27:55;1.10;;;1.00;;
15228;SDS011;7717;47.792;12.076;2022-07-01T04:30:20;1.20;;;0.90;;
15228;SDS011;7717;47.792;12.076;2022-07-01T04:32:45;1.10;;;0.80;;
15228;SDS011;7717;47.792;12.076;2022-07-01T04:35:11;1.00;;;0.70;;
15228;SDS011;7717;47.792;12.076;2022-07-01T04:37:37;2.63;;;0.83;;
15228;SDS011;7717;47.792;12.076;2022-07-01T04:40:03;3.00;;;0.83;;
15228;SDS011;7717;47.792;12.076;2022-07-01T04:42:29;1.10;;;0.80;;
15228;SDS011;7717;47.792;12.076;2022-07-01T04:44:54;1.40;;;0.90;;
15228;SDS011;7717;47.792;12.076;2022-07-01T04:47:19;0.93;;;0.70;;
15228;SDS011;7717;47.792;12.076;2022-07-01T04:49:46;0.80;;;0.80;;
15228;SDS011;7717;47.792;12.076;2022-07-01T04:52:11;0.90;;;0.90;;
15228;SDS011;7717;47.792;12.076;2022-07-01T04:54:36;1.07;;;1.00;;
15228;SDS011;7717;47.792;12.076;2022-07-01T04:57:02;1.00;;;1.00;;
15228;SDS011;7717;47.792;12.076;2022-07-01T04:59:27;2.03;;;1.17;;
15228;SDS011;7717;47.792;12.076;2022-07-01T05:01:52;1.13;;;1.00;;
15228;SDS011;7717;47.792;12.076;2022-07-01T05:04:18;0.77;;;0.77;;
15228;SDS011;7717;47.792;12.076;2022-07-01T05:06:43;1.13;;;1.00;;
15228;SDS011;7717;47.792;12.076;2022-07-01T05:09:09;6.87;;;1.73;;
15228;SDS011;7717;47.792;12.076;2022-07-01T05:11:34;3.00;;;1.23;;
15228;SDS011;7717;47.792;12.076;2022-07-01T05:13:59;3.50;;;1.30;;
15228;SDS011;7717;47.792;12.076;2022-07-01T05:16:25;1.60;;;1.50;;
15228;SDS011;7717;47.792;12.076;2022-07-01T05:18:50;1.33;;;1.23;;
15228;SDS011;7717;47.792;12.076;2022-07-01T05:21:33;1.53;;;1.43;;
15228;SDS011;7717;47.792;12.076;2022-07-01T05:24:17;2.37;;;1.40;;
15228;SDS011;7717;47.792;12.076;2022-07-01T05:26:42;2.77;;;1.53;;
15228;SDS011;7717;47.792;12.076;2022-07-01T05:29:08;2.33;;;1.60;;
15228;SDS011;7717;47.792;12.076;2022-07-01T05:31:33;1.43;;;1.40;;
15228;SDS011;7717;47.792;12.076;2022-07-01T05:33:58;3.10;;;1.50;;
15228;SDS011;7717;47.792;12.076;2022-07-01T05:36:24;1.70;;;1.60;;
15228;SDS011;7717;47.792;12.076;2022-07-01T05:38:49;1.90;;;1.47;;
15228;SDS011;7717;47.792;12.076;2022-07-01T05:41:14;3.07;;;1.50;;
15228;SDS011;7717;47.792;12.076;2022-07-01T05:43:41;2.67;;;1.30;;
15228;SDS011;7717;47.792;12.076;2022-07-01T05:46:06;1.90;;;1.50;;
15228;SDS011;7717;47.792;12.076;2022-07-01T05:48:31;1.60;;;1.50;;
15228;SDS011;7717;47.792;12.076;2022-07-01T05:50:56;5.87;;;1.40;;
15228;SDS011;7717;47.792;12.076;2022-07-01T05:53:21;3.27;;;1.30;;
15228;SDS011;7717;47.792;12.076;2022-07-01T05:55:47;1.40;;;1.30;;
15228;SDS011;7717;47.792;12.076;2022-07-01T05:58:13;1.23;;;1.13;;
15228;SDS011;7717;47.792;12.076;2022-07-01T06:00:38;3.00;;;1.20;;
15228;SDS011;7717;47.792;12.076;2022-07-01T06:03:06;1.70;;;1.60;;
15228;SDS011;7717;47.792;12.076;2022-07-01T06:05:31;1.53;;;1.43;;
15228;SDS011;7717;47.792;12.076;2022-07-01T06:07:56;1.17;;;1.17;;
15228;SDS011;7717;47.792;12.076;2022-07-01T06:10:22;2.93;;;1.53;;
15228;SDS011;7717;47.792;12.076;2022-07-01T06:12:47;1.80;;;1.70;;
15228;SDS011;7717;47.792;12.076;2022-07-01T06:15:12;1.57;;;1.47;;
15228;SDS011;7717;47.792;12.076;2022-07-01T06:17:38;3.47;;;1.50;;
15228;SDS011;7717;47.792;12.076;2022-07-01T06:20:03;1.50;;;1.33;;
15228;SDS011;7717;47.792;12.076;2022-07-01T06:22:29;2.63;;;1.40;;
15228;SDS011;7717;47.792;12.076;2022-07-01T06:24:55;2.30;;;1.30;;
15228;SDS011;7717;47.792;12.076;2022-07-01T06:27:20;2.77;;;1.53;;
15228;SDS011;7717;47.792;12.076;2022-07-01T06:29:45;1.97;;;1.53;;
15228;SDS011;7717;47.792;12.076;2022-07-01T06:32:11;1.40;;;1.30;;
15228;SDS011;7717;47.792;12.076;2022-07-01T06:34:36;1.40;;;1.30;;
15228;SDS011;7717;47.792;12.076;2022-07-01T06:37:01;1.97;;;1.50;;
15228;SDS011;7717;47.792;12.076;2022-07-01T06:39:28;1.30;;;1.20;;
15228;SDS011;7717;47.792;12.076;2022-07-01T06:41:54;1.40;;;1.30;;
15228;SDS011;7717;47.792;12.076;2022-07-01T06:44:19;1.50;;;1.40;;
15228;SDS011;7717;47.792;12.076;2022-07-01T06:46:44;1.67;;;1.57;;
15228;SDS011;7717;47.792;12.076;2022-07-01T06:49:10;1.47;;;1.00;;
15228;SDS011;7717;47.792;12.076;2022-07-01T06:51:35;1.67;;;1.10;;
15228;SDS011;7717;47.792;12.076;2022-07-01T06:54:02;2.00;;;1.10;;
15228;SDS011;7717;47.792;12.076;2022-07-01T06:56:27;2.17;;;1.13;;
15228;SDS011;7717;47.792;12.076;2022-07-01T06:58:53;1.00;;;1.00;;
15228;SDS011;7717;47.792;12.076;2022-07-01T07:01:18;1.00;;;0.95;;
15228;SDS011;7717;47.792;12.076;2022-07-01T07:03:43;2.58;;;0.90;;
15228;SDS011;7717;47.792;12.076;2022-07-01T07:06:08;1.58;;;0.73;;
15228;SDS011;7717;47.792;12.076;2022-07-01T07:08:34;1.33;;;1.15;;
15228;SDS011;7717;47.792;12.076;2022-07-01T07:10:59;1.10;;;1.00;;
15228;SDS011;7717;47.792;12.076;2022-07-01T07:13:24;1.13;;;1.00;;
15228;SDS011;7717;47.792;12.076;2022-07-01T07:15:50;2.60;;;1.13;;
15228;SDS011;7717;47.792;12.076;2022-07-01T07:18:15;0.93;;;0.82;;
15228;SDS011;7717;47.792;12.076;2022-07-01T07:20:40;1.52;;;1.08;;
15228;SDS011;7717;47.792;12.076;2022-07-01T07:23:06;0.93;;;0.93;;
15228;SDS011;7717;47.792;12.076;2022-07-01T07:25:31;0.80;;;0.80;;
15228;SDS011;7717;47.792;12.076;2022-07-01T07:27:56;0.75;;;0.75;;
15228;SDS011;7717;47.792;12.076;2022-07-01T07:30:22;0.73;;;0.73;;
15228;SDS011;7717;47.792;12.076;2022-07-01T07:32:47;0.70;;;0.70;;
15228;SDS011;7717;47.792;12.076;2022-07-01T07:35:12;0.90;;;0.90;;
15228;SDS011;7717;47.792;12.076;2022-07-01T07:37:38;2.03;;;0.82;;
15228;SDS011;7717;47.792;12.076;2022-07-01T07:40:03;0.82;;;0.70;;
15228;SDS011;7717;47.792;12.076;2022-07-01T07:42:31;1.05;;;0.95;;
15228;SDS011;7717;47.792;12.076;2022-07-01T07:44:56;0.70;;;0.70;;
15228;SDS011;7717;47.792;12.076;2022-07-01T07:47:22;0.80;;;0.80;;
15228;SDS011;7717;47.792;12.076;2022-07-01T07:49:47;0.95;;;0.88;;
15228;SDS011;7717;47.792;12.076;2022-07-01T07:52:12;0.90;;;0.90;;
15228;SDS011;7717;47.792;12.076;2022-07-01T07:54:37;0.80;;;0.80;;
15228;SDS011;7717;47.792;12.076;2022-07-01T07:57:03;1.30;;;0.80;;
15228;SDS011;7717;47.792;12.076;2022-07-01T07:59:29;2.63;;;1.27;;
15228;SDS011;7717;47.792;12.076;2022-07-01T08:01:54;1.83;;;0.90;;
15228;SDS011;7717;47.792;12.076;2022-07-01T08:04:19;2.35;;;1.10;;
15228;SDS011;7717;47.792;12.076;2022-07-01T08:06:45;0.80;;;0.80;;
15228;SDS011;7717;47.792;12.076;2022-07-01T08:09:10;1.50;;;1.40;;
15228;SDS011;7717;47.792;12.076;2022-07-01T08:11:35;2.67;;;1.23;;
15228;SDS011;7717;47.792;12.076;2022-07-01T08:14:01;1.30;;;1.20;;
15228;SDS011;7717;47.792;12.076;2022-07-01T08:16:26;1.35;;;1.05;;
15228;SDS011;7717;47.792;12.076;2022-07-01T08:18:51;0.70;;;0.70;;
15228;SDS011;7717;47.792;12.076;2022-07-01T08:21:17;0.50;;;0.50;;
15228;SDS011;7717;47.792;12.076;2022-07-01T08:23:42;0.77;;;0.77;;
15228;SDS011;7717;47.792;12.076;2022-07-01T08:26:07;0.50;;;0.50;;
15228;SDS011;7717;47.792;12.076;2022-07-01T08:28:32;0.60;;;0.60;;
15228;SDS011;7717;47.792;12.076;2022-07-01T08:30:58;0.70;;;0.70;;
15228;SDS011;7717;47.792;12.076;2022-07-01T08:33:24;1.23;;;0.50;;
15228;SDS011;7717;47.792;12.076;2022-07-01T08:35:49;0.82;;;0.65;;
15228;SDS011;7717;47.792;12.076;2022-07-01T08:38:15;0.70;;;0.70;;
15228;SDS011;7717;47.792;12.076;2022-07-01T08:40:40;0.90;;;0.90;;
15228;SDS011;7717;47.792;12.076;2022-07-01T08:43:05;0.80;;;0.80;;
15228;SDS011;7717;47.792;12.076;2022-07-01T08:45:32;0.80;;;0.80;;
15228;SDS011;7717;47.792;12.076;2022-07-01T08:47:58;0.70;;;0.70;;
15228;SDS011;7717;47.792;12.076;2022-07-01T08:50:28;0.80;;;0.80;;
15228;SDS011;7717;47.792;12.076;2022-07-01T08:52:53;2.00;;;0.90;;
15228;SDS011;7717;47.792;12.076;2022-07-01T08:55:19;1.20;;;0.83;;
15228;SDS011;7717;47.792;12.076;2022-07-01T08:57:44;1.10;;;0.77;;
15228;SDS011;7717;47.792;12.076;2022-07-01T09:00:10;0.83;;;0.83;;
15228;SDS011;7717;47.792;12.076;2022-07-01T09:02:57;0.87;;;0.87;;
15228;SDS011;7717;47.792;12.076;2022-07-01T09:05:21;0.57;;;0.57;;
15228;SDS011;7717;47.792;12.076;2022-07-01T09:07:47;1.80;;;0.70;;
15228;SDS011;7717;47.792;12.076;2022-07-01T09:10:16;0.80;;;0.80;;
15228;SDS011;7717;47.792;12.076;2022-07-01T09:12:48;0.90;;;0.90;;
15228;SDS011;7717;47.792;12.076;2022-07-01T09:17:45;1.10;;;1.07;;
15228;SDS011;7717;47.792;12.076;2022-07-01T09:20:22;1.20;;;0.97;;
15228;SDS011;7717;47.792;12.076;2022-07-01T09:23:00;1.10;;;1.07;;
15228;SDS011;7717;47.792;12.076;2022-07-01T09:25:26;1.33;;;0.80;;
15228;SDS011;7717;47.792;12.076;2022-07-01T09:30:51;0.70;;;0.70;;
15228;SDS011;7717;47.792;12.076;2022-07-01T09:33:20;0.30;;;0.30;;
15228;SDS011;7717;47.792;12.076;2022-07-01T09:35:46;0.80;;;0.30;;
15228;SDS011;7717;47.792;12.076;2022-07-01T09:38:14;0.50;;;0.40;;
15228;SDS011;7717;47.792;12.076;2022-07-01T09:40:55;0.43;;;0.30;;
15228;SDS011;7717;47.792;12.076;2022-07-01T09:43:23;1.27;;;0.57;;
15228;SDS011;7717;47.792;12.076;2022-07-01T09:48:16;1.50;;;0.30;;
15228;SDS011;7717;47.792;12.076;2022-07-01T09:50:42;0.57;;;0.40;;
15228;SDS011;7717;47.792;12.076;2022-07-01T09:53:08;0.37;;;0.30;;
15228;SDS011;7717;47.792;12.076;2022-07-01T09:55:34;0.27;;;0.27;;
15228;SDS011;7717;47.792;12.076;2022-07-01T09:57:59;1.80;;;0.30;;
15228;SDS011;7717;47.792;12.076;2022-07-01T10:00:25;0.23;;;0.10;;
15228;SDS011;7717;47.792;12.076;2022-07-01T10:02:50;0.60;;;0.40;;
15228;SDS011;7717;47.792;12.076;2022-07-01T10:05:17;0.40;;;0.20;;
15228;SDS011;7717;47.792;12.076;2022-07-01T10:07:50;0.20;;;0.20;;
15228;SDS011;7717;47.792;12.076;2022-07-01T10:10:30;0.17;;;0.17;;
15228;SDS011;7717;47.792;12.076;2022-07-01T10:12:58;0.30;;;0.30;;
15228;SDS011;7717;47.792;12.076;2022-07-01T10:15:25;0.30;;;0.30;;
15228;SDS011;7717;47.792;12.076;2022-07-01T10:17:51;0.30;;;0.30;;
15228;SDS011;7717;47.792;12.076;2022-07-01T10:20:27;0.17;;;0.17;;
15228;SDS011;7717;47.792;12.076;2022-07-01T10:23:03;0.20;;;0.20;;
15228;SDS011;7717;47.792;12.076;2022-07-01T10:25:30;0.20;;;0.20;;
15228;SDS011;7717;47.792;12.076;2022-07-01T10:28:56;0.20;;;0.20;;
15228;SDS011;7717;47.792;12.076;2022-07-01T10:35:52;0.20;;;0.20;;
15228;SDS011;7717;47.792;12.076;2022-07-01T10:38:17;0.10;;;0.10;;
15228;SDS011;7717;47.792;12.076;2022-07-01T10:40:44;0.10;;;0.10;;
15228;SDS011;7717;47.792;12.076;2022-07-01T10:43:10;0.20;;;0.20;;
15228;SDS011;7717;47.792;12.076;2022-07-01T10:45:43;0.30;;;0.30;;
15228;SDS011;7717;47.792;12.076;2022-07-01T10:48:20;0.20;;;0.20;;
15228;SDS011;7717;47.792;12.076;2022-07-01T10:50:46;0.20;;;0.20;;
15228;SDS011;7717;47.792;12.076;2022-07-01T10:53:15;0.30;;;0.30;;
15228;SDS011;7717;47.792;12.076;2022-07-01T10:55:43;0.20;;;0.10;;
15228;SDS011;7717;47.792;12.076;2022-07-01T10:58:09;0.37;;;0.20;;
15228;SDS011;7717;47.792;12.076;2022-07-01T11:00:35;0.30;;;0.30;;
15228;SDS011;7717;47.792;12.076;2022-07-01T11:03:07;0.30;;;0.30;;
15228;SDS011;7717;47.792;12.076;2022-07-01T11:05:33;0.57;;;0.20;;
15228;SDS011;7717;47.792;12.076;2022-07-01T11:07:59;0.17;;;0.17;;
15228;SDS011;7717;47.792;12.076;2022-07-01T11:10:24;0.37;;;0.30;;
15228;SDS011;7717;47.792;12.076;2022-07-01T11:12:49;0.50;;;0.30;;
15228;SDS011;7717;47.792;12.076;2022-07-01T11:15:15;0.30;;;0.30;;
15228;SDS011;7717;47.792;12.076;2022-07-01T11:17:43;0.20;;;0.20;;
15228;SDS011;7717;47.792;12.076;2022-07-01T11:20:09;2.13;;;0.40;;
15228;SDS011;7717;47.792;12.076;2022-07-01T11:22:34;0.80;;;0.50;;
15228;SDS011;7717;47.792;12.076;2022-07-01T11:25:04;0.57;;;0.40;;
15228;SDS011;7717;47.792;12.076;2022-07-01T11:27:29;2.93;;;0.80;;
15228;SDS011;7717;47.792;12.076;2022-07-01T11:29:55;2.73;;;0.70;;
15228;SDS011;7717;47.792;12.076;2022-07-01T11:32:28;2.20;;;0.77;;
15228;SDS011;7717;47.792;12.076;2022-07-01T11:34:53;0.60;;;0.20;;
15228;SDS011;7717;47.792;12.076;2022-07-01T11:37:19;0.83;;;0.47;;
15228;SDS011;7717;47.792;12.076;2022-07-01T11:40:12;2.13;;;0.23;;
15228;SDS011;7717;47.792;12.076;2022-07-01T11:42:38;0.20;;;0.20;;
15228;SDS011;7717;47.792;12.076;2022-07-01T11:45:04;0.30;;;0.30;;
15228;SDS011;7717;47.792;12.076;2022-07-01T11:47:29;0.53;;;0.20;;
15228;SDS011;7717;47.792;12.076;2022-07-01T11:49:55;0.70;;;0.27;;
15228;SDS011;7717;47.792;12.076;2022-07-01T11:52:21;0.50;;;0.50;;
15228;SDS011;7717;47.792;12.076;2022-07-01T11:54:47;0.30;;;0.30;;
15228;SDS011;7717;47.792;12.076;2022-07-01T11:57:14;0.53;;;0.27;;
15228;SDS011;7717;47.792;12.076;2022-07-01T11:59:40;0.50;;;0.30;;
15228;SDS011;7717;47.792;12.076;2022-07-01T12:02:06;1.03;;;0.30;;
15228;SDS011;7717;47.792;12.076;2022-07-01T12:04:33;0.93;;;0.43;;
15228;SDS011;7717;47.792;12.076;2022-07-01T12:06:59;1.00;;;0.20;;
15228;SDS011;7717;47.792;12.076;2022-07-01T12:09:24;1.80;;;0.40;;
15228;SDS011;7717;47.792;12.076;2022-07-01T12:11:50;1.80;;;0.57;;
15228;SDS011;7717;47.792;12.076;2022-07-01T12:14:50;0.40;;;0.40;;
15228;SDS011;7717;47.792;12.076;2022-07-01T12:17:08;0.93;;;0.40;;
15228;SDS011;7717;47.792;12.076;2022-07-01T12:19:40;0.40;;;0.40;;
15228;SDS011;7717;47.792;12.076;2022-07-01T12:22:12;1.03;;;0.40;;
15228;SDS011;7717;47.792;12.076;2022-07-01T12:24:38;0.87;;;0.40;;
15228;SDS011;7717;47.792;12.076;2022-07-01T12:27:04;0.47;;;0.47;;
15228;SDS011;7717;47.792;12.076;2022-07-01T12:29:31;1.90;;;0.60;;
15228;SDS011;7717;47.792;12.076;2022-07-01T12:32:13;0.53;;;0.30;;
15228;SDS011;7717;47.792;12.076;2022-07-01T12:34:45;1.10;;;0.30;;
15228;SDS011;7717;47.792;12.076;2022-07-01T12:37:12;0.47;;;0.40;;
15228;SDS011;7717;47.792;12.076;2022-07-01T12:39:42;0.77;;;0.30;;
15228;SDS011;7717;47.792;12.076;2022-07-01T12:42:08;0.47;;;0.47;;
15228;SDS011;7717;47.792;12.076;2022-07-01T12:44:33;0.90;;;0.30;;
15228;SDS011;7717;47.792;12.076;2022-07-01T12:46:59;0.40;;;0.40;;
15228;SDS011;7717;47.792;12.076;2022-07-01T12:49:40;0.30;;;0.30;;
15228;SDS011;7717;47.792;12.076;2022-07-01T12:52:05;0.63;;;0.50;;
15228;SDS011;7717;47.792;12.076;2022-07-01T12:54:47;0.20;;;0.20;;
15228;SDS011;7717;47.792;12.076;2022-07-01T12:57:12;0.30;;;0.30;;
15228;SDS011;7717;47.792;12.076;2022-07-01T12:59:37;0.70;;;0.70;;
15228;SDS011;7717;47.792;12.076;2022-07-01T13:02:02;1.40;;;0.50;;
15228;SDS011;7717;47.792;12.076;2022-07-01T13:04:28;0.53;;;0.40;;
15228;SDS011;7717;47.792;12.076;2022-07-01T13:06:54;1.33;;;0.50;;
15228;SDS011;7717;47.792;12.076;2022-07-01T13:09:19;1.50;;;0.33;;
15228;SDS011;7717;47.792;12.076;2022-07-01T13:11:44;0.90;;;0.50;;
15228;SDS011;7717;47.792;12.076;2022-07-01T13:14:09;1.27;;;0.43;;
15228;SDS011;7717;47.792;12.076;2022-07-01T13:16:35;0.40;;;0.40;;
15228;SDS011;7717;47.792;12.076;2022-07-01T13:19:00;0.70;;;0.60;;
15228;SDS011;7717;47.792;12.076;2022-07-01T13:21:25;1.33;;;0.50;;
15228;SDS011;7717;47.792;12.076;2022-07-01T13:23:50;0.60;;;0.43;;
15228;SDS011;7717;47.792;12.076;2022-07-01T13:26:16;1.40;;;0.43;;
15228;SDS011;7717;47.792;12.076;2022-07-01T13:28:41;1.23;;;0.43;;
15228;SDS011;7717;47.792;12.076;2022-07-01T13:31:06;0.60;;;0.60;;
15228;SDS011;7717;47.792;12.076;2022-07-01T13:33:31;0.50;;;0.50;;
15228;SDS011;7717;47.792;12.076;2022-07-01T13:35:56;0.50;;;0.40;;
15228;SDS011;7717;47.792;12.076;2022-07-01T13:38:23;1.73;;;0.60;;
15228;SDS011;7717;47.792;12.076;2022-07-01T13:40:48;0.50;;;0.50;;
15228;SDS011;7717;47.792;12.076;2022-07-01T13:43:13;4.03;;;1.30;;
15228;SDS011;7717;47.792;12.076;2022-07-01T13:45:40;5.33;;;1.63;;
15228;SDS011;7717;47.792;12.076;2022-07-01T13:48:06;1.37;;;1.07;;
15228;SDS011;7717;47.792;12.076;2022-07-01T13:50:31;1.13;;;0.60;;
15228;SDS011;7717;47.792;12.076;2022-07-01T13:52:56;2.33;;;0.60;;
15228;SDS011;7717;47.792;12.076;2022-07-01T13:55:21;1.20;;;0.80;;
15228;SDS011;7717;47.792;12.076;2022-07-01T13:57:47;0.80;;;0.60;;
15228;SDS011;7717;47.792;12.076;2022-07-01T14:00:12;0.60;;;0.60;;
15228;SDS011;7717;47.792;12.076;2022-07-01T14:02:37;0.87;;;0.60;;
15228;SDS011;7717;47.792;12.076;2022-07-01T14:05:02;0.70;;;0.70;;
15228;SDS011;7717;47.792;12.076;2022-07-01T14:07:28;1.50;;;0.77;;
15228;SDS011;7717;47.792;12.076;2022-07-01T14:09:53;0.60;;;0.60;;
15228;SDS011;7717;47.792;12.076;2022-07-01T14:12:19;1.70;;;0.80;;
15228;SDS011;7717;47.792;12.076;2022-07-01T14:14:44;2.20;;;0.70;;
15228;SDS011;7717;47.792;12.076;2022-07-01T14:17:09;0.60;;;0.60;;
15228;SDS011;7717;47.792;12.076;2022-07-01T14:19:34;0.67;;;0.67;;
15228;SDS011;7717;47.792;12.076;2022-07-01T14:22:00;0.70;;;0.70;;
15228;SDS011;7717;47.792;12.076;2022-07-01T14:24:25;2.57;;;0.80;;
15228;SDS011;7717;47.792;12.076;2022-07-01T14:26:51;0.97;;;0.63;;
15228;SDS011;7717;47.792;12.076;2022-07-01T14:29:16;1.13;;;0.53;;
15228;SDS011;7717;47.792;12.076;2022-07-01T14:31:41;1.00;;;0.90;;
15228;SDS011;7717;47.792;12.076;2022-07-01T14:34:06;0.77;;;0.70;;
15228;SDS011;7717;47.792;12.076;2022-07-01T14:36:32;0.60;;;0.60;;
15228;SDS011;7717;47.792;12.076;2022-07-01T14:38:57;1.00;;;0.80;;
15228;SDS011;7717;47.792;12.076;2022-07-01T14:41:22;0.90;;;0.60;;
15228;SDS011;7717;47.792;12.076;2022-07-01T14:43:47;0.90;;;0.80;;
15228;SDS011;7717;47.792;12.076;2022-07-01T14:46:13;0.73;;;0.73;;
15228;SDS011;7717;47.792;12.076;2022-07-01T14:48:39;1.73;;;1.63;;
15228;SDS011;7717;47.792;12.076;2022-07-01T14:51:05;1.47;;;1.00;;
15228;SDS011;7717;47.792;12.076;2022-07-01T14:53:31;1.60;;;0.90;;
15228;SDS011;7717;47.792;12.076;2022-07-01T14:55:56;1.10;;;1.00;;